Time;durP1;ratioP1;P1;durP2;ratioP2;P2;SDS_P1;SDS_P2;PMS_P1;PMS_P2;Temp;Humidity;BMP_temperature;BMP_pressure;BME280_temperature;BME280_humidity;BME280_pressure;Samples;Min_cycle;Max_cycle;Signal;HPM_P1;HPM_P2
2022/02/21 07:00:50;;;;;;;64.05;9.82;;;;;;;;;;5656169;23;20049;-88
2022/02/21 07:03:16;;;;;;;58.65;9.23;;;;;;;;;;4862953;29;20616;-88
2022/02/21 07:05:43;;;;;;;76.20;8.57;;;;;;;;;;4886481;29;20096;-92
2022/02/21 07:08:10;;;;;;;70.28;9.98;;;;;;;;;;4877162;29;20060;-89
2022/02/21 07:10:38;;;;;;;72.23;9.03;;;;;;;;;;4895637;29;20045;-91
2022/02/21 07:13:05;;;;;;;68.07;10.02;;;;;;;;;;4879161;29;20129;-91
2022/02/21 07:15:32;;;;;;;60.78;8.52;;;;;;;;;;4893273;29;20127;-89
2022/02/21 07:17:59;;;;;;;66.13;9.27;;;;;;;;;;4890793;29;20051;-92
2022/02/21 07:20:26;;;;;;;70.32;9.35;;;;;;;;;;4893091;29;20051;-90
2022/02/21 07:22:53;;;;;;;68.03;9.77;;;;;;;;;;4894786;29;20531;-90
2022/02/21 07:25:23;;;;;;;68.57;10.18;;;;;;;;;;4877342;29;20525;-89
2022/02/21 07:27:51;;;;;;;66.05;10.82;;;;;;;;;;4892195;29;20516;-94
2022/02/21 07:30:26;;;;;;;82.75;11.20;;;;;;;;;;4889785;29;20056;-89
2022/02/21 07:32:57;;;;;;;67.22;9.32;;;;;;;;;;4874842;29;20048;-89
2022/02/21 07:35:25;;;;;;;66.40;8.70;;;;;;;;;;4883455;29;20734;-91
2022/02/21 07:37:53;;;;;;;65.32;9.23;;;;;;;;;;4889604;29;20518;-90
2022/02/21 07:40:20;;;;;;;61.70;9.48;;;;;;;;;;4875416;29;20048;-92
2022/02/21 07:42:49;;;;;;;65.97;8.65;;;;;;;;;;4892099;29;20589;-92
2022/02/21 07:45:19;;;;;;;74.25;10.38;;;;;;;;;;4891610;29;20052;-89
2022/02/21 07:47:48;;;;;;;72.00;8.85;;;;;;;;;;4873989;29;20052;-89
2022/02/21 07:50:16;;;;;;;58.10;9.18;;;;;;;;;;4892484;29;20139;-88
2022/02/21 07:52:46;;;;;;;63.55;8.48;;;;;;;;;;4892000;29;20052;-89
2022/02/21 07:55:13;;;;;;;56.05;8.27;;;;;;;;;;4890612;29;20045;-90
2022/02/21 07:58:12;;;;;;;58.72;8.60;;;;;;;;;;4875650;29;20379;-88
2022/02/21 08:00:39;;;;;;;67.55;8.23;;;;;;;;;;4889717;29;20057;-89
2022/02/21 08:03:06;;;;;;;64.40;8.77;;;;;;;;;;4874959;29;20539;-88
2022/02/21 08:05:35;;;;;;;64.70;9.68;;;;;;;;;;4892004;29;20119;-87
2022/02/21 08:08:11;;;;;;;65.55;9.68;;;;;;;;;;4891827;29;20049;-90
2022/02/21 08:10:37;;;;;;;55.92;8.15;;;;;;;;;;4889499;29;20115;-87
2022/02/21 08:13:04;;;;;;;74.63;10.45;;;;;;;;;;4874439;29;20499;-89
2022/02/21 08:15:31;;;;;;;70.05;9.50;;;;;;;;;;4877734;29;20056;-89
2022/02/21 08:18:00;;;;;;;74.78;9.68;;;;;;;;;;4889685;29;20122;-89
2022/02/21 08:20:27;;;;;;;59.33;8.90;;;;;;;;;;4887512;29;20072;-89
2022/02/21 08:22:55;;;;;;;69.57;10.43;;;;;;;;;;4889240;29;20104;-90
2022/02/21 08:25:24;;;;;;;68.35;8.65;;;;;;;;;;4886841;29;20124;-89
2022/02/21 08:27:51;;;;;;;59.80;10.57;;;;;;;;;;4877165;29;20057;-88
2022/02/21 08:30:20;;;;;;;64.40;9.00;;;;;;;;;;4873415;29;20060;-89
2022/02/21 08:32:47;;;;;;;64.97;9.68;;;;;;;;;;4873874;29;20414;-88
2022/02/21 08:35:15;;;;;;;78.60;10.93;;;;;;;;;;4875022;29;20056;-89
2022/02/21 08:37:42;;;;;;;57.45;9.25;;;;;;;;;;4889803;29;20592;-88
2022/02/21 08:40:11;;;;;;;65.22;9.57;;;;;;;;;;4874067;29;20096;-87
2022/02/21 08:42:39;;;;;;;68.07;8.73;;;;;;;;;;4885238;29;20461;-88
2022/02/21 08:45:07;;;;;;;49.08;8.20;;;;;;;;;;4890898;29;20433;-85
2022/02/21 08:47:34;;;;;;;76.82;9.65;;;;;;;;;;4890378;29;20533;-88
2022/02/21 08:50:03;;;;;;;57.47;8.95;;;;;;;;;;4890111;29;20065;-88
2022/02/21 08:52:34;;;;;;;66.78;8.48;;;;;;;;;;4889513;29;20052;-87
2022/02/21 08:55:01;;;;;;;60.97;9.77;;;;;;;;;;4888826;29;20124;-87
2022/02/21 08:57:27;;;;;;;66.57;8.70;;;;;;;;;;4890127;29;20535;-87
2022/02/21 08:59:54;;;;;;;63.45;8.85;;;;;;;;;;4890860;29;20056;-90
2022/02/21 09:02:21;;;;;;;62.33;8.55;;;;;;;;;;4890689;29;20903;-87
2022/02/21 09:05:08;;;;;;;62.55;9.45;;;;;;;;;;4894302;29;20127;-87
2022/02/21 09:07:34;;;;;;;66.07;9.48;;;;;;;;;;4880129;29;20061;-87
2022/02/21 09:10:01;;;;;;;72.05;10.93;;;;;;;;;;4894106;29;20113;-87
2022/02/21 09:12:28;;;;;;;80.32;10.68;;;;;;;;;;4881103;29;20376;-87
2022/02/21 09:14:56;;;;;;;68.00;9.77;;;;;;;;;;4893710;29;20053;-89
2022/02/21 09:17:23;;;;;;;65.78;10.52;;;;;;;;;;4894518;29;20149;-86
2022/02/21 09:19:50;;;;;;;70.38;10.05;;;;;;;;;;4895165;29;20060;-87
2022/02/21 09:22:21;;;;;;;68.60;10.10;;;;;;;;;;4893903;29;20045;-88
2022/02/21 09:24:48;;;;;;;62.78;9.73;;;;;;;;;;4893779;29;20513;-87
2022/02/21 09:27:15;;;;;;;67.70;9.45;;;;;;;;;;4893528;29;20044;-88
2022/02/21 09:29:46;;;;;;;64.50;9.70;;;;;;;;;;4876963;29;20502;-88
2022/02/21 09:32:14;;;;;;;57.40;8.10;;;;;;;;;;4891819;29;20044;-87
2022/02/21 09:34:41;;;;;;;59.03;9.18;;;;;;;;;;4893906;29;20060;-87
2022/02/21 09:37:08;;;;;;;59.67;9.80;;;;;;;;;;4894064;29;20052;-87
2022/02/21 09:39:36;;;;;;;63.65;10.57;;;;;;;;;;4874647;29;20052;-86
2022/02/21 09:42:03;;;;;;;70.53;8.73;;;;;;;;;;4896510;29;20469;-85
2022/02/21 09:44:30;;;;;;;64.03;9.82;;;;;;;;;;4894015;29;20469;-88
2022/02/21 09:46:57;;;;;;;55.88;8.40;;;;;;;;;;4880167;29;20052;-86
2022/02/21 09:49:28;;;;;;;63.33;9.55;;;;;;;;;;4894438;29;20048;-86
2022/02/21 09:51:54;;;;;;;;;;;;;;;;;;4879113;29;20048;-86
2022/02/21 09:54:23;;;;;;;59.45;9.38;;;;;;;;;;4888334;29;20485;-85
2022/02/21 09:56:51;;;;;;;60.20;9.75;;;;;;;;;;4889651;29;20057;-85
2022/02/21 09:59:18;;;;;;;66.88;8.65;;;;;;;;;;4892628;29;20048;-86
2022/02/21 10:01:45;;;;;;;68.05;10.23;;;;;;;;;;4884388;29;20122;-86
2022/02/21 10:04:13;;;;;;;64.20;9.05;;;;;;;;;;4872826;29;20484;-86
2022/02/21 10:06:40;;;;;;;57.28;8.45;;;;;;;;;;4877730;29;20517;-90
2022/02/21 10:09:12;;;;;;;63.78;9.57;;;;;;;;;;4873107;29;20065;-86
2022/02/21 10:11:42;;;;;;;61.28;8.55;;;;;;;;;;4889671;29;20631;-86
2022/02/21 10:14:14;;;;;;;55.65;9.25;;;;;;;;;;4871434;29;20048;-87
2022/02/21 10:16:51;;;;;;;53.00;8.90;;;;;;;;;;4873892;29;20056;-87
2022/02/21 10:19:29;;;;;;;66.65;8.98;;;;;;;;;;4877536;29;20048;-88
2022/02/21 10:22:10;;;;;;;64.00;9.13;;;;;;;;;;4865677;29;20049;-86
2022/02/21 10:24:43;;;;;;;64.28;9.82;;;;;;;;;;4870498;29;20175;-85
2022/02/21 10:27:13;;;;;;;64.82;8.85;;;;;;;;;;4873637;29;20513;-86
2022/02/21 10:29:51;;;;;;;53.55;8.50;;;;;;;;;;4873744;29;20490;-86
2022/02/21 10:32:21;;;;;;;69.95;9.88;;;;;;;;;;4877006;29;20546;-86
2022/02/21 10:34:49;;;;;;;67.38;10.20;;;;;;;;;;4875632;29;20116;-86
2022/02/21 10:37:26;;;;;;;57.35;9.43;;;;;;;;;;4880130;29;20049;-85
2022/02/21 10:40:08;;;;;;;53.92;10.15;;;;;;;;;;4880900;29;20072;-86
2022/02/21 10:42:35;;;;;;;69.47;10.68;;;;;;;;;;4867098;29;20518;-85
2022/02/21 10:45:15;;;;;;;65.63;10.63;;;;;;;;;;4871755;29;20045;-85
2022/02/21 10:48:04;;;;;;;57.38;9.70;;;;;;;;;;4874074;29;20100;-86
2022/02/21 10:50:52;;;;;;;68.30;9.95;;;;;;;;;;4874244;29;20494;-86
2022/02/21 10:53:23;;;;;;;71.47;9.57;;;;;;;;;;4886768;29;20084;-85
2022/02/21 10:55:52;;;;;;;58.03;8.82;;;;;;;;;;4876862;29;20053;-87
2022/02/21 10:58:18;;;;;;;68.82;10.23;;;;;;;;;;4867462;29;20060;-87
2022/02/21 11:00:49;;;;;;;58.08;10.30;;;;;;;;;;4862698;29;20176;-86
2022/02/21 11:03:21;;;;;;;56.35;10.65;;;;;;;;;;4874037;29;20116;-87
2022/02/21 11:05:49;;;;;;;60.58;10.15;;;;;;;;;;4873598;29;20116;-84
2022/02/21 11:08:18;;;;;;;63.63;10.50;;;;;;;;;;4873547;29;20480;-86
2022/02/21 11:10:49;;;;;;;67.78;9.40;;;;;;;;;;4873509;29;20060;-85
2022/02/21 11:13:17;;;;;;;58.17;9.05;;;;;;;;;;4872451;29;20106;-85
2022/02/21 11:15:43;;;;;;;73.47;11.20;;;;;;;;;;4873084;29;20053;-88
2022/02/21 11:18:12;;;;;;;62.75;10.07;;;;;;;;;;4873618;29;20106;-87
2022/02/21 11:20:39;;;;;;;;;;;;;;;;;;4873784;29;20049;-88
2022/02/21 11:23:07;;;;;;;57.63;9.27;;;;;;;;;;4871479;29;19928;-87
2022/02/21 11:25:44;;;;;;;61.63;8.57;;;;;;;;;;4870825;29;20483;-88
2022/02/21 11:28:26;;;;;;;49.33;8.05;;;;;;;;;;4871886;29;20437;-88
2022/02/21 11:30:58;;;;;;;66.32;9.93;;;;;;;;;;4875970;29;20094;-87
2022/02/21 11:33:25;;;;;;;62.40;10.10;;;;;;;;;;4875222;29;20056;-88
2022/02/21 11:36:02;;;;;;;60.83;10.02;;;;;;;;;;4872306;29;20133;-88
2022/02/21 11:38:30;;;;;;;56.63;10.73;;;;;;;;;;4869359;29;20057;-89
2022/02/21 11:41:03;;;;;;;70.00;9.93;;;;;;;;;;4871715;29;20593;-89
2022/02/21 11:43:36;;;;;;;70.75;9.63;;;;;;;;;;4870057;29;20573;-88
2022/02/21 11:46:20;;;;;;;70.07;10.75;;;;;;;;;;4871585;29;20048;-88
2022/02/21 11:49:02;;;;;;;86.30;15.13;;;;;;;;;;4864154;29;20048;-88
2022/02/21 11:51:37;;;;;;;76.70;13.20;;;;;;;;;;4848213;29;20453;-87
2022/02/21 11:54:13;;;;;;;80.30;13.80;;;;;;;;;;4866989;29;20105;-88
2022/02/21 11:56:51;;;;;;;81.75;13.77;;;;;;;;;;4872821;29;20135;-88
2022/02/21 11:59:24;;;;;;;;;;;;;;;;;;4871806;29;20136;-89
2022/02/21 12:02:12;;;;;;;75.00;10.88;;;;;;;;;;4871967;29;19932;-87
2022/02/21 12:04:53;;;;;;;91.88;12.88;;;;;;;;;;4862206;29;20058;-87
2022/02/21 12:07:22;;;;;;;76.75;12.38;;;;;;;;;;4863445;29;20589;-87
2022/02/21 12:10:07;;;;;;;;;;;;;;;;;;4860641;29;20131;-89
2022/02/21 12:12:49;;;;;;;66.32;11.35;;;;;;;;;;4863239;29;19999;-88
2022/02/21 12:15:17;;;;;;;69.22;10.63;;;;;;;;;;4870672;29;20049;-85
2022/02/21 12:17:44;;;;;;;67.60;10.18;;;;;;;;;;4861476;29;20053;-88
2022/02/21 12:20:46;;;;;;;72.65;10.95;;;;;;;;;;4871298;29;20053;-88
2022/02/21 12:23:14;;;;;;;66.05;10.05;;;;;;;;;;4855248;29;20053;-90
2022/02/21 12:26:01;;;;;;;69.82;11.63;;;;;;;;;;4856496;29;20045;-91
2022/02/21 12:28:34;;;;;;;73.07;10.25;;;;;;;;;;4848033;29;20586;-86
2022/02/21 12:31:01;;;;;;;66.47;9.93;;;;;;;;;;4854275;29;20053;-88
2022/02/21 12:33:33;;;;;;;59.20;11.93;;;;;;;;;;4855554;29;20045;-88
2022/02/21 12:36:02;;;;;;;63.50;10.45;;;;;;;;;;4855138;29;20077;-89
2022/02/21 12:38:33;;;;;;;64.05;9.57;;;;;;;;;;4824571;29;20046;-87
2022/02/21 12:41:06;;;;;;;73.28;9.98;;;;;;;;;;4860088;29;20046;-86
2022/02/21 12:43:54;;;;;;;52.13;9.32;;;;;;;;;;4857980;29;20056;-88
2022/02/21 12:46:43;;;;;;;59.05;8.65;;;;;;;;;;4844894;29;20045;-88
2022/02/21 12:49:19;;;;;;;53.85;8.65;;;;;;;;;;4852278;29;20076;-87
2022/02/21 12:51:50;;;;;;;52.63;9.25;;;;;;;;;;4852806;29;20053;-88
2022/02/21 12:54:18;;;;;;;56.05;7.93;;;;;;;;;;4859431;29;20050;-87
2022/02/21 12:56:55;;;;;;;62.88;9.80;;;;;;;;;;4866804;29;20683;-87
2022/02/21 12:59:30;;;;;;;55.53;9.13;;;;;;;;;;4853044;29;20060;-86
2022/02/21 13:02:00;;;;;;;69.65;10.02;;;;;;;;;;4867410;29;20084;-87
2022/02/21 13:04:27;;;;;;;72.25;9.18;;;;;;;;;;4880455;29;20052;-87
2022/02/21 13:06:56;;;;;;;74.43;10.23;;;;;;;;;;4880573;29;20115;-88
2022/02/21 13:09:23;;;;;;;75.00;10.38;;;;;;;;;;4891538;29;20037;-89
2022/02/21 13:11:56;;;;;;;68.32;9.63;;;;;;;;;;4895997;29;20044;-88
2022/02/21 13:14:29;;;;;;;72.90;11.50;;;;;;;;;;4896708;29;20052;-90
2022/02/21 13:17:00;;;;;;;76.38;11.10;;;;;;;;;;4898665;29;20064;-91
2022/02/21 13:19:35;;;;;;;84.18;11.73;;;;;;;;;;4876004;29;20787;-88
2022/02/21 13:22:09;;;;;;;72.43;11.77;;;;;;;;;;4881056;29;20048;-90
2022/02/21 13:24:38;;;;;;;73.60;12.63;;;;;;;;;;4897850;29;20061;-88
2022/02/21 13:27:08;;;;;;;89.45;14.27;;;;;;;;;;4895170;29;20041;-86
2022/02/21 13:29:41;;;;;;;83.68;13.90;;;;;;;;;;4887923;29;20057;-87
2022/02/21 13:34:57;;;;;;;70.18;10.73;;;;;;;;;;4891807;29;20070;-87
2022/02/21 13:37:28;;;;;;;81.70;14.02;;;;;;;;;;4885099;29;20048;-88
2022/02/21 13:40:01;;;;;;;84.15;12.68;;;;;;;;;;4895871;29;20045;-86
2022/02/21 13:42:28;;;;;;;79.22;13.63;;;;;;;;;;4897724;29;20052;-85
2022/02/21 13:45:16;;;;;;;76.18;11.30;;;;;;;;;;4895996;29;20056;-85
2022/02/21 13:47:56;;;;;;;77.40;13.38;;;;;;;;;;4892290;29;20053;-85
2022/02/21 13:50:41;;;;;;;74.22;12.20;;;;;;;;;;4892745;29;20535;-87
2022/02/21 13:53:15;;;;;;;83.10;14.15;;;;;;;;;;4891263;29;20565;-86
2022/02/21 13:55:53;;;;;;;99.13;16.92;;;;;;;;;;4879931;29;20056;-85
2022/02/21 13:58:32;;;;;;;99.45;18.73;;;;;;;;;;4888644;29;20437;-87
2022/02/21 14:01:15;;;;;;;85.07;11.65;;;;;;;;;;4891601;29;20140;-85
2022/02/21 14:03:57;;;;;;;78.95;12.00;;;;;;;;;;4882306;29;20053;-86
2022/02/21 14:06:26;;;;;;;86.05;11.10;;;;;;;;;;4868167;29;20136;-84
2022/02/21 14:08:56;;;;;;;78.25;13.73;;;;;;;;;;4876322;29;20526;-85
2022/02/21 14:11:41;;;;;;;63.60;12.70;;;;;;;;;;4867693;29;20068;-87
2022/02/21 14:14:21;;;;;;;73.13;11.40;;;;;;;;;;4879716;29;20577;-87
2022/02/21 14:16:50;;;;;;;77.15;10.18;;;;;;;;;;4882738;29;20789;-86
2022/02/21 14:19:19;;;;;;;79.78;11.77;;;;;;;;;;4883299;29;20148;-85
2022/02/21 14:21:54;;;;;;;67.68;12.82;;;;;;;;;;4885112;29;20073;-85
2022/02/21 14:24:21;;;;;;;73.80;10.90;;;;;;;;;;4879833;29;20046;-85
2022/02/21 14:26:48;;;;;;;77.22;13.73;;;;;;;;;;4888440;29;20672;-85
2022/02/21 14:29:15;;;;;;;72.63;12.02;;;;;;;;;;4888718;29;20104;-85
2022/02/21 14:31:43;;;;;;;68.43;10.70;;;;;;;;;;4882287;29;20072;-85
2022/02/21 14:34:10;;;;;;;69.47;12.15;;;;;;;;;;4878157;29;20101;-86
2022/02/21 14:36:37;;;;;;;79.60;10.93;;;;;;;;;;4882461;29;20052;-86
2022/02/21 14:39:04;;;;;;;70.25;11.13;;;;;;;;;;4876939;29;20109;-85
2022/02/21 14:41:31;;;;;;;68.97;9.45;;;;;;;;;;4880955;29;20516;-87
2022/02/21 14:43:58;;;;;;;77.18;10.40;;;;;;;;;;4860686;29;20079;-85
2022/02/21 14:46:25;;;;;;;67.35;9.13;;;;;;;;;;4860606;29;20057;-86
2022/02/21 14:48:52;;;;;;;63.28;8.10;;;;;;;;;;4858470;29;20084;-88
2022/02/21 14:51:25;;;;;;;62.72;8.70;;;;;;;;;;4880044;29;20068;-87
2022/02/21 14:53:55;;;;;;;73.87;10.37;;;;;;;;;;4869825;29;20052;-85
2022/02/21 14:56:28;;;;;;;65.88;9.77;;;;;;;;;;4880122;29;20282;-88
2022/02/21 14:58:57;;;;;;;68.65;10.13;;;;;;;;;;4884158;29;20482;-89
2022/02/21 15:01:24;;;;;;;54.78;10.70;;;;;;;;;;4880097;29;20087;-87
2022/02/21 15:03:50;;;;;;;81.53;12.93;;;;;;;;;;4872681;29;20056;-86
2022/02/21 15:06:19;;;;;;;77.28;10.90;;;;;;;;;;4872583;29;20045;-87
2022/02/21 15:08:51;;;;;;;74.68;9.52;;;;;;;;;;4870180;29;20056;-86
2022/02/21 15:11:17;;;;;;;76.28;9.85;;;;;;;;;;4889956;29;20104;-86
2022/02/21 15:13:44;;;;;;;71.18;10.05;;;;;;;;;;4881453;29;20045;-86
2022/02/21 15:16:13;;;;;;;70.95;10.02;;;;;;;;;;4879310;29;20080;-88
2022/02/21 15:18:40;;;;;;;63.45;9.55;;;;;;;;;;4872593;29;20139;-87
2022/02/21 15:21:06;;;;;;;63.22;9.07;;;;;;;;;;4882670;29;20056;-88
2022/02/21 15:23:33;;;;;;;58.90;8.13;;;;;;;;;;4881698;29;20052;-90
2022/02/21 15:26:00;;;;;;;56.03;8.43;;;;;;;;;;4868096;29;20104;-89
2022/02/21 15:28:28;;;;;;;68.45;8.73;;;;;;;;;;4874870;29;20052;-90
2022/02/21 15:30:54;;;;;;;64.07;9.68;;;;;;;;;;4883038;29;20048;-88
2022/02/21 15:33:21;;;;;;;75.43;11.30;;;;;;;;;;4855862;29;20057;-88
2022/02/21 15:35:47;;;;;;;75.15;10.80;;;;;;;;;;4860961;29;20055;-88
2022/02/21 15:38:14;;;;;;;70.35;9.02;;;;;;;;;;4863035;29;20522;-90
2022/02/21 15:40:41;;;;;;;76.82;11.70;;;;;;;;;;4879429;29;20052;-89
2022/02/21 15:43:07;;;;;;;73.32;11.77;;;;;;;;;;4884305;29;20419;-88
2022/02/21 15:45:34;;;;;;;69.78;11.15;;;;;;;;;;4864934;29;20101;-89
2022/02/21 15:48:02;;;;;;;65.78;11.55;;;;;;;;;;4889220;29;20080;-91
2022/02/21 15:50:29;;;;;;;62.65;9.32;;;;;;;;;;4885569;29;20502;-87
2022/02/21 15:52:56;;;;;;;76.68;11.25;;;;;;;;;;4863429;29;20088;-87
2022/02/21 15:55:25;;;;;;;78.57;10.57;;;;;;;;;;4873683;29;21701;-87
2022/02/21 15:57:52;;;;;;;82.53;12.52;;;;;;;;;;4871151;29;20049;-88
2022/02/21 16:00:20;;;;;;;69.47;10.77;;;;;;;;;;4874390;29;20048;-88
2022/02/21 16:02:51;;;;;;;68.40;9.05;;;;;;;;;;4870819;29;20060;-88
2022/02/21 16:05:18;;;;;;;65.05;9.82;;;;;;;;;;4872501;29;20581;-86
2022/02/21 16:07:44;;;;;;;68.30;9.80;;;;;;;;;;4867964;29;20069;-88
2022/02/21 16:10:11;;;;;;;67.22;10.68;;;;;;;;;;4884818;29;20132;-86
2022/02/21 16:12:38;;;;;;;84.35;13.68;;;;;;;;;;4870314;29;20080;-88
2022/02/21 16:15:06;;;;;;;73.90;9.80;;;;;;;;;;4857320;29;20048;-85
2022/02/21 16:17:33;;;;;;;83.95;10.77;;;;;;;;;;4867944;29;20101;-85
2022/02/21 16:20:00;;;;;;;64.57;12.30;;;;;;;;;;4866530;29;20718;-86
2022/02/21 16:22:27;;;;;;;84.10;16.00;;;;;;;;;;4865964;29;20121;-89
2022/02/21 16:24:54;;;;;;;73.32;10.23;;;;;;;;;;4870961;29;20521;-87
2022/02/21 16:27:20;;;;;;;115.70;19.10;;;;;;;;;;4872312;29;20498;-87
2022/02/21 16:29:47;;;;;;;76.82;12.32;;;;;;;;;;4873350;29;20057;-88
2022/02/21 16:32:14;;;;;;;91.78;13.32;;;;;;;;;;4874548;29;20045;-88
2022/02/21 16:34:41;;;;;;;69.18;11.70;;;;;;;;;;4872617;29;20049;-90
2022/02/21 16:37:08;;;;;;;88.05;14.32;;;;;;;;;;4878915;29;20105;-91
2022/02/21 16:39:35;;;;;;;83.18;11.93;;;;;;;;;;4862300;29;20107;-88
2022/02/21 16:42:03;;;;;;;81.05;11.20;;;;;;;;;;4872659;29;20517;-84
2022/02/21 16:44:29;;;;;;;84.40;14.15;;;;;;;;;;4875095;29;20110;-88
2022/02/21 16:46:56;;;;;;;87.05;13.52;;;;;;;;;;4871266;29;20097;-89
2022/02/21 16:49:25;;;;;;;83.55;11.13;;;;;;;;;;4874461;29;20112;-91
2022/02/21 16:51:53;;;;;;;91.93;16.83;;;;;;;;;;4873567;29;20537;-88
2022/02/21 16:54:20;;;;;;;81.95;11.10;;;;;;;;;;4875242;29;20060;-90
2022/02/21 16:56:47;;;;;;;83.78;14.55;;;;;;;;;;4875668;29;20120;-89
2022/02/21 16:59:13;;;;;;;95.38;16.40;;;;;;;;;;4889634;29;20128;-89
2022/02/21 17:01:44;;;;;;;68.45;9.60;;;;;;;;;;4883466;29;20057;-89
2022/02/21 17:04:10;;;;;;;84.82;15.00;;;;;;;;;;4872451;29;20071;-87
2022/02/21 17:06:37;;;;;;;83.15;16.33;;;;;;;;;;4865497;29;20064;-89
2022/02/21 17:09:04;;;;;;;69.80;11.60;;;;;;;;;;4856159;29;20105;-87
2022/02/21 17:11:30;;;;;;;87.75;15.05;;;;;;;;;;4874359;29;20136;-88
2022/02/21 17:13:57;;;;;;;93.35;16.38;;;;;;;;;;4867981;29;20057;-88
2022/02/21 17:16:24;;;;;;;73.63;12.75;;;;;;;;;;4879126;29;20124;-88
2022/02/21 17:18:51;;;;;;;76.13;14.73;;;;;;;;;;4884679;29;20064;-89
2022/02/21 17:21:18;;;;;;;70.68;11.30;;;;;;;;;;4891144;29;20052;-87
2022/02/21 17:23:44;;;;;;;79.85;12.63;;;;;;;;;;4884708;29;20140;-88
2022/02/21 17:26:11;;;;;;;69.13;10.63;;;;;;;;;;4871212;29;20135;-89
2022/02/21 17:28:38;;;;;;;83.80;12.75;;;;;;;;;;4871052;29;20498;-87
2022/02/21 17:31:05;;;;;;;79.47;13.05;;;;;;;;;;4879781;29;20076;-87
2022/02/21 17:33:37;;;;;;;80.35;10.32;;;;;;;;;;4873198;29;20091;-88
2022/02/21 17:36:05;;;;;;;133.25;49.53;;;;;;;;;;4877419;29;20049;-85
2022/02/21 17:38:31;;;;;;;68.88;9.50;;;;;;;;;;4891439;29;20108;-89
2022/02/21 17:40:58;;;;;;;73.65;14.68;;;;;;;;;;4869540;29;20654;-89
2022/02/21 17:43:25;;;;;;;67.30;10.45;;;;;;;;;;4874863;29;20076;-89
2022/02/21 17:45:52;;;;;;;65.45;10.35;;;;;;;;;;4861837;29;20506;-89
2022/02/21 17:48:20;;;;;;;60.33;9.82;;;;;;;;;;4877760;29;20105;-88
2022/02/21 17:50:49;;;;;;;72.78;8.93;;;;;;;;;;4872586;29;20056;-93
2022/02/21 17:53:15;;;;;;;76.65;10.50;;;;;;;;;;4874720;29;20475;-86
2022/02/21 17:55:42;;;;;;;78.72;10.15;;;;;;;;;;4878556;29;20052;-91
2022/02/21 17:58:09;;;;;;;69.15;9.57;;;;;;;;;;4861790;29;20488;-91
2022/02/21 18:00:37;;;;;;;66.38;8.77;;;;;;;;;;4862663;29;20518;-92
2022/02/21 18:03:04;;;;;;;63.72;8.90;;;;;;;;;;4857531;29;20073;-90
2022/02/21 18:05:31;;;;;;;73.75;9.60;;;;;;;;;;4868915;29;20054;-90
2022/02/21 18:07:58;;;;;;;70.22;9.30;;;;;;;;;;4879535;29;20089;-89
2022/02/21 18:10:25;;;;;;;71.20;9.02;;;;;;;;;;4876080;29;20045;-90
2022/02/21 18:12:52;;;;;;;67.43;14.45;;;;;;;;;;4872689;29;20077;-89
2022/02/21 18:15:20;;;;;;;63.90;8.48;;;;;;;;;;4873291;29;20041;-90
2022/02/21 18:17:46;;;;;;;69.15;8.48;;;;;;;;;;4866816;29;20081;-90
2022/02/21 18:20:15;;;;;;;61.30;8.43;;;;;;;;;;4878547;29;20045;-90
2022/02/21 18:22:45;;;;;;;51.67;7.55;;;;;;;;;;4874669;29;20053;-89
2022/02/21 18:25:12;;;;;;;48.78;6.72;;;;;;;;;;4870701;29;20065;-89
2022/02/21 18:27:40;;;;;;;65.43;8.43;;;;;;;;;;4862463;29;20049;-90
2022/02/21 18:30:08;;;;;;;59.53;8.48;;;;;;;;;;4859252;29;20502;-90
2022/02/21 18:32:36;;;;;;;61.15;7.97;;;;;;;;;;4877658;29;20558;-91
2022/02/21 18:35:04;;;;;;;60.22;7.88;;;;;;;;;;4860118;29;20596;-90
2022/02/21 18:37:31;;;;;;;58.88;7.05;;;;;;;;;;4872478;29;20116;-89
2022/02/21 18:39:59;;;;;;;61.03;8.80;;;;;;;;;;4876345;29;20104;-90
2022/02/21 18:42:26;;;;;;;67.65;9.38;;;;;;;;;;4861518;29;20056;-90
2022/02/21 18:44:52;;;;;;;61.72;7.30;;;;;;;;;;4873314;29;20498;-91
2022/02/21 18:47:20;;;;;;;65.47;8.25;;;;;;;;;;4862281;29;20101;-90
2022/02/21 18:49:47;;;;;;;62.33;7.95;;;;;;;;;;4873807;29;20057;-89
2022/02/21 18:52:16;;;;;;;65.75;7.60;;;;;;;;;;4858361;29;20049;-88
2022/02/21 18:54:43;;;;;;;66.60;8.35;;;;;;;;;;4868606;29;20045;-91
2022/02/21 18:57:10;;;;;;;64.03;8.45;;;;;;;;;;4858199;29;20590;-90
2022/02/21 18:59:39;;;;;;;62.63;9.85;;;;;;;;;;4873184;29;20057;-91
2022/02/21 19:02:06;;;;;;;;;;;;;;;;;;4890421;29;20104;-86
2022/02/21 19:04:34;;;;;;;63.15;8.35;;;;;;;;;;4890058;29;19935;-88
2022/02/21 19:07:01;;;;;;;44.00;7.10;;;;;;;;;;4891867;29;20073;-88
2022/02/21 19:09:30;;;;;;;65.45;8.60;;;;;;;;;;4893522;29;20072;-89
2022/02/21 19:11:58;;;;;;;72.55;8.55;;;;;;;;;;4875024;29;20052;-88
2022/02/21 19:14:25;;;;;;;62.35;8.35;;;;;;;;;;4875596;29;20118;-93
2022/02/21 19:16:53;;;;;;;60.55;8.40;;;;;;;;;;4871820;29;20053;-92
2022/02/21 19:19:20;;;;;;;62.08;7.55;;;;;;;;;;4896107;29;20049;-91
2022/02/21 19:21:48;;;;;;;56.40;7.45;;;;;;;;;;4879416;29;20100;-93
2022/02/21 19:24:14;;;;;;;60.10;8.35;;;;;;;;;;4894686;29;20049;-92
2022/02/21 19:26:41;;;;;;;55.75;7.20;;;;;;;;;;4879248;29;20642;-93
2022/02/21 19:29:08;;;;;;;61.38;8.43;;;;;;;;;;4895731;29;20064;-92
2022/02/21 19:31:34;;;;;;;71.70;8.43;;;;;;;;;;4874850;29;20068;-92
2022/02/21 19:34:01;;;;;;;64.53;8.32;;;;;;;;;;4881308;29;20492;-92
2022/02/21 19:36:28;;;;;;;63.53;7.88;;;;;;;;;;4891422;29;20128;-94
2022/02/21 19:38:55;;;;;;;66.32;9.02;;;;;;;;;;4896500;29;20056;-93
2022/02/21 19:41:25;;;;;;;71.13;9.00;;;;;;;;;;4881974;29;20569;-94
2022/02/21 19:43:53;;;;;;;59.97;7.60;;;;;;;;;;4891566;29;20055;-94
2022/02/21 19:46:21;;;;;;;66.78;9.07;;;;;;;;;;4896408;29;20084;-96
2022/02/21 19:48:48;;;;;;;64.50;9.18;;;;;;;;;;4882596;29;20052;-96
2022/02/21 19:51:20;;;;;;;71.63;9.23;;;;;;;;;;4881080;29;20052;-96
2022/02/21 19:53:47;;;;;;;49.42;7.13;;;;;;;;;;4883215;29;20459;-94
2022/02/21 19:56:16;;;;;;;53.70;8.30;;;;;;;;;;4883852;29;20080;-93
2022/02/21 19:58:43;;;;;;;60.88;7.90;;;;;;;;;;4899078;29;20048;-92
2022/02/21 20:01:10;;;;;;;66.70;8.07;;;;;;;;;;4889175;29;20040;-91
2022/02/21 20:03:39;;;;;;;65.68;8.23;;;;;;;;;;4878061;29;20526;-92
2022/02/21 20:06:06;;;;;;;;;;;;;;;;;;4895252;29;20056;-91
2022/02/21 20:08:33;;;;;;;67.20;8.13;;;;;;;;;;4886703;29;20350;-92
2022/02/21 20:11:00;;;;;;;50.78;6.85;;;;;;;;;;4894788;29;20048;-92
2022/02/21 20:13:26;;;;;;;63.13;7.40;;;;;;;;;;4895980;29;20101;-92
2022/02/21 20:15:59;;;;;;;60.60;7.15;;;;;;;;;;4881755;29;20123;-92
2022/02/21 20:18:29;;;;;;;55.35;7.60;;;;;;;;;;4890623;29;20119;-90
2022/02/21 20:20:56;;;;;;;59.40;7.15;;;;;;;;;;4893176;29;20541;-90
2022/02/21 20:23:23;;;;;;;63.63;8.10;;;;;;;;;;4893733;29;20079;-90
2022/02/21 20:25:49;;;;;;;71.68;7.82;;;;;;;;;;4880158;29;20076;-90
2022/02/21 20:28:16;;;;;;;59.47;8.15;;;;;;;;;;4877810;29;20124;-91
2022/02/21 20:30:45;;;;;;;59.33;8.35;;;;;;;;;;4895758;29;20065;-84
2022/02/21 20:33:12;;;;;;;62.53;7.93;;;;;;;;;;4891332;29;20128;-86
2022/02/21 20:35:51;;;;;;;69.18;7.93;;;;;;;;;;4888996;29;20060;-90
2022/02/21 20:38:18;;;;;;;67.65;7.45;;;;;;;;;;4866983;29;20084;-90
2022/02/21 20:40:44;;;;;;;74.25;9.30;;;;;;;;;;4893253;29;20060;-90
2022/02/21 20:43:11;;;;;;;61.08;9.02;;;;;;;;;;4882558;29;20566;-90
2022/02/21 20:45:40;;;;;;;57.10;8.13;;;;;;;;;;4891901;29;20132;-91
2022/02/21 20:48:07;;;;;;;59.92;7.53;;;;;;;;;;4877266;29;20056;-89
2022/02/21 20:50:35;;;;;;;71.22;8.75;;;;;;;;;;4877648;29;20506;-88
2022/02/21 20:53:02;;;;;;;73.07;8.80;;;;;;;;;;4877135;29;20119;-88
2022/02/21 20:55:29;;;;;;;66.25;11.00;;;;;;;;;;4878783;29;20513;-90
2022/02/21 20:57:56;;;;;;;71.47;8.88;;;;;;;;;;4894283;29;20454;-89
2022/02/21 21:00:23;;;;;;;57.20;8.13;;;;;;;;;;4896931;29;20069;-89
2022/02/21 21:02:49;;;;;;;69.78;9.40;;;;;;;;;;4863556;29;20577;-89
2022/02/21 21:05:16;;;;;;;66.03;9.18;;;;;;;;;;4885375;29;20430;-89
2022/02/21 21:07:44;;;;;;;72.78;8.98;;;;;;;;;;4887038;29;20152;-89
2022/02/21 21:10:13;;;;;;;70.22;8.38;;;;;;;;;;4863708;29;20049;-89
2022/02/21 21:12:39;;;;;;;76.28;8.20;;;;;;;;;;4860169;29;20048;-89
2022/02/21 21:15:06;;;;;;;74.18;8.48;;;;;;;;;;4869992;29;20068;-87
2022/02/21 21:17:33;;;;;;;71.80;8.38;;;;;;;;;;4882993;29;20123;-85
2022/02/21 21:20:00;;;;;;;63.63;7.70;;;;;;;;;;4884553;29;20502;-88
2022/02/21 21:22:27;;;;;;;76.18;8.75;;;;;;;;;;4875442;29;20045;-85
2022/02/21 21:24:54;;;;;;;71.88;8.23;;;;;;;;;;4864481;29;20049;-88
2022/02/21 21:27:21;;;;;;;64.80;8.88;;;;;;;;;;4893767;29;20116;-89
2022/02/21 21:29:49;;;;;;;62.47;8.43;;;;;;;;;;4863547;29;20057;-89
2022/02/21 21:32:15;;;;;;;67.80;8.30;;;;;;;;;;4846111;29;20880;-88
2022/02/21 21:34:42;;;;;;;62.97;8.60;;;;;;;;;;4874782;29;20120;-87
2022/02/21 21:37:09;;;;;;;66.70;8.30;;;;;;;;;;4887295;29;20092;-89
2022/02/21 21:39:35;;;;;;;56.70;8.02;;;;;;;;;;4877760;29;20076;-88
2022/02/21 21:42:02;;;;;;;62.42;8.65;;;;;;;;;;4878347;29;20045;-89